Peshawbestown, Michigan
Current Conditions -  °F | °C
As of 10:53 AM on Thursday 29 Jan 2015 (Local Time) from KTVC Reporting Station
Light Snow Light Snow  
Wind Chill: 27°   Ceiling: 1700
Heat Index: 27°   Visibility: 2mi
Dew Point: 25°   Wind: 0mph
Humidity: 92%   Direction: NA
Pressure: 29.78"   Gusts: NA
Location:  44.9784°N, 85.6488°W
Report Text: KTVC 291553Z 00000KT 2SM -SN BR BKN017 OVC033 M03/M04 A2978 RMK AO2 SLP093 P0004 T10281039
Loading
Personal Weather Stations






























Interactive Weather Map New forecast layout! Learn more

10-Day Weather Forecast

Advertisements
Track Severe Weather on mobile